This is the latest recevied weather packets stored in our database for station/object VK3XEM-13. If no packets are shown the sender has not sent any weather packets the latest 10 day(s).
| Time | Temp. | Humidity | Pressure | Rain* | Wind** | Luminosity | Snow |
|---|---|---|---|---|---|---|---|
| 1777852934 | 16.11° C | 64% | 1009.3 hPa | 0 mm | - | 372 W/m² | - |
| 1777852034 | 16.67° C | 64% | 1009.7 hPa | 0 mm | - | 380 W/m² | - |
| 1777851135 | 16.11° C | 65% | 1009.7 hPa | 0 mm | - | 276 W/m² | - |
| 1777850234 | 16.11° C | 65% | 1009.7 hPa | 0 mm | - | 243 W/m² | - |
| 1777849334 | 15.56° C | 67% | 1009.7 hPa | 0 mm | - | 201 W/m² | - |
| 1777848434 | 15.56° C | 67% | 1010 hPa | 0 mm | - | 160 W/m² | - |
| 1777847534 | 15° C | 69% | 1009.7 hPa | 0 mm | - | 117 W/m² | - |
| 1777846634 | 14.44° C | 70% | 1009.7 hPa | 0 mm | - | 82 W/m² | - |
| 1777845734 | 13.89° C | 73% | 1009.7 hPa | 0 mm | - | 50 W/m² | - |
| 1777844834 | 13.33° C | 74% | 1009.7 hPa | 0 mm | - | 31 W/m² | - |
| 1777843934 | 12.78° C | 78% | 1009.7 hPa | 0 mm | - | 23 W/m² | - |
| 1777843033 | 12.78° C | 78% | 1009.7 hPa | 0 mm | - | 12 W/m² | - |
| 1777842134 | 13.33° C | 77% | 1009.7 hPa | 0 mm | - | 4 W/m² | - |
| 1777841234 | 12.78° C | 78% | 1009.7 hPa | 0 mm | - | 0 W/m² | - |
| 1777840334 | 12.78° C | 80% | 1009.3 hPa | 0 mm | - | 0 W/m² | - |
| 1777839434 | 12.78° C | 81% | 1009.3 hPa | 0 mm | - | 0 W/m² | - |
| 1777838534 | 12.78° C | 81% | 1009.3 hPa | 0 mm | - | 0 W/m² | - |
| 1777837635 | 12.78° C | 80% | 1009.7 hPa | 0 mm | - | 0 W/m² | - |
| 1777836735 | 12.22° C | 81% | 1009.3 hPa | 0 mm | - | 0 W/m² | - |
| 1777835834 | 12.22° C | 82% | 1009.3 hPa | 0 mm | - | 0 W/m² | - |
| 1777834934 | 12.22° C | 82% | 1009.7 hPa | 0 mm | - | 0 W/m² | - |
| 1777834035 | 12.22° C | 82% | 1010 hPa | 0 mm | - | 0 W/m² | - |
| 1777833135 | 12.22° C | 83% | 1010 hPa | 0 mm | - | 0 W/m² | - |
| 1777832234 | 12.22° C | 84% | 1010 hPa | 0 mm | - | 0 W/m² | - |
| 1777831334 | 12.22° C | 84% | 1010 hPa | 0 mm | - | 0 W/m² | - |
* Rain latest hour (hover to see other rain measurements)
** Current wind speed in m/s (hover to see current wind gust speed)